Time;durP1;ratioP1;P1;durP2;ratioP2;P2;SDS_P1;SDS_P2;PMS_P1;PMS_P2;Temp;Humidity;BMP_temperature;BMP_pressure;BME280_temperature;BME280_humidity;BME280_pressure;Samples;Min_cycle;Max_cycle;Signal;HPM_P1;HPM_P2
2023/06/07 00:02:23;;;;;;;;;;;14.00;99.90;;;;;;5105679;28;20026;-72
2023/06/07 00:04:48;;;;;;;;;;;13.90;99.90;;;;;;5105459;28;20014;-72
2023/06/07 00:07:14;;;;;;;;;;;13.90;99.90;;;;;;5105689;28;19924;-71
2023/06/07 00:09:40;;;;;;;;;;;13.80;99.90;;;;;;5084812;28;19977;-71
2023/06/07 00:12:06;;;;;;;;;;;13.80;99.90;;;;;;5095377;28;19924;-71
2023/06/07 00:14:31;;;;;;;;;;;13.80;99.90;;;;;;5103248;28;19970;-72
2023/06/07 00:16:58;;;;;;;;;;;13.90;99.90;;;;;;5108614;28;19971;-72
2023/06/07 00:19:25;;;;;;;;;;;13.90;99.90;;;;;;5096508;28;19924;-72
2023/06/07 00:21:51;;;;;;;;;;;13.90;99.90;;;;;;5101286;28;19924;-72
2023/06/07 00:24:17;;;;;;;;;;;13.80;99.90;;;;;;5109453;28;19963;-72
2023/06/07 00:26:43;;;;;;;;;;;13.80;99.90;;;;;;5112489;28;19982;-72
2023/06/07 00:29:09;;;;;;;;;;;13.80;99.90;;;;;;5110539;27;20414;-72
2023/06/07 00:31:34;;;;;;;;;;;13.80;99.90;;;;;;5112595;28;19958;-71
2023/06/07 00:34:00;;;;;;;;;;;13.80;99.90;;;;;;5108790;28;19966;-72
2023/06/07 00:36:26;;;;;;;;;;;13.70;99.90;;;;;;5093282;28;19928;-72
2023/06/07 00:38:52;;;;;;;;;;;13.70;99.90;;;;;;5108400;28;19931;-72
2023/06/07 00:41:17;;;;;;;;;;;13.70;99.90;;;;;;5109757;28;19927;-71
2023/06/07 00:43:44;;;;;;;;;;;13.70;99.90;;;;;;5106758;28;20025;-72
2023/06/07 00:46:11;;;;;;;;;;;13.70;99.90;;;;;;5101271;28;20006;-72
2023/06/07 00:48:37;;;;;;;;;;;13.70;99.90;;;;;;5096827;28;20005;-72
2023/06/07 00:51:04;;;;;;;;;;;13.60;99.90;;;;;;5109025;28;20907;-71
2023/06/07 00:53:30;;;;;;;;;;;13.60;99.90;;;;;;5105135;28;19924;-72
2023/06/07 00:55:56;;;;;;;;;;;13.60;99.90;;;;;;5108721;28;19931;-72
2023/06/07 00:58:22;;;;;;;;;;;13.50;99.90;;;;;;5094738;28;19928;-72
2023/06/07 01:00:48;;;;;;;;;;;13.50;99.90;;;;;;5092513;28;20395;-71
2023/06/07 01:03:14;;;;;;;;;;;13.50;99.90;;;;;;5089559;28;19927;-72
2023/06/07 01:05:41;;;;;;;;;;;13.50;99.90;;;;;;5111551;28;19931;-72
2023/06/07 01:08:09;;;;;;;;;;;13.50;99.90;;;;;;5092958;28;20398;-72
2023/06/07 01:10:35;;;;;;;;;;;13.40;99.90;;;;;;5105761;28;20413;-71
2023/06/07 01:13:02;;;;;;;;;;;13.40;99.90;;;;;;5105814;28;19924;-72
2023/06/07 01:15:27;;;;;;;;;;;13.40;99.90;;;;;;5106790;28;20301;-71
2023/06/07 01:17:53;;;;;;;;;;;13.30;99.90;;;;;;5102199;28;19932;-71
2023/06/07 01:20:25;;;;;;;;;;;13.30;99.90;;;;;;5107491;28;20015;-72
2023/06/07 01:22:53;;;;;;;;;;;13.40;99.90;;;;;;5101473;28;20056;-72
2023/06/07 01:25:19;;;;;;;;;;;13.40;99.90;;;;;;5108840;28;19930;-71
2023/06/07 01:27:45;;;;;;;;;;;13.40;99.90;;;;;;5111688;28;19923;-72
2023/06/07 01:30:12;;;;;;;;;;;13.40;99.90;;;;;;5108177;28;20053;-72
2023/06/07 01:32:40;;;;;;;;;;;13.40;99.90;;;;;;5106148;28;20414;-72
2023/06/07 01:35:06;;;;;;;;;;;13.40;99.90;;;;;;5102785;28;20010;-72
2023/06/07 01:37:34;;;;;;;;;;;13.40;99.90;;;;;;5109534;28;19982;-72
2023/06/07 01:39:59;;;;;;;;;;;13.40;99.90;;;;;;5110688;28;19954;-72
2023/06/07 01:42:25;;;;;;;;;;;13.40;99.90;;;;;;5097443;28;19931;-71
2023/06/07 01:44:51;;;;;;;;;;;13.30;99.90;;;;;;5101755;28;20386;-72
2023/06/07 01:47:17;;;;;;;;;;;13.30;99.90;;;;;;5094323;28;20328;-72
2023/06/07 01:49:42;;;;;;;;;;;13.30;99.90;;;;;;5099541;28;19934;-71
2023/06/07 01:52:08;;;;;;;;;;;13.30;99.90;;;;;;5106690;28;19931;-72
2023/06/07 01:54:34;;;;;;;;;;;13.20;99.90;;;;;;5111485;28;19932;-72
2023/06/07 01:57:08;;;;;;;;;;;13.30;99.90;;;;;;5094919;28;21209;-71
2023/06/07 01:59:44;;;;;;;;;;;13.20;99.90;;;;;;5110372;28;19924;-72
2023/06/07 02:02:17;;;;;;;;;;;13.20;99.90;;;;;;5103427;28;19924;-71
2023/06/07 02:04:44;;;;;;;;;;;13.20;99.90;;;;;;5102058;28;19946;-72
2023/06/07 02:07:14;;;;;;;;;;;13.20;99.90;;;;;;5102727;28;19924;-72
2023/06/07 02:09:41;;;;;;;;;;;13.20;99.90;;;;;;5091485;28;20274;-72
2023/06/07 02:12:07;;;;;;;;;;;13.20;99.90;;;;;;5111681;28;20010;-72
2023/06/07 02:14:33;;;;;;;;;;;13.20;99.90;;;;;;5110480;28;19927;-72
2023/06/07 02:16:58;;;;;;;;;;;13.10;99.90;;;;;;5110220;28;19951;-71
2023/06/07 02:19:24;;;;;;;;;;;13.10;99.90;;;;;;5097338;28;20340;-71
2023/06/07 02:21:50;;;;;;;;;;;13.10;99.90;;;;;;5111512;28;19924;-72
2023/06/07 02:24:17;;;;;;;;;;;13.10;99.90;;;;;;5108289;28;20503;-72
2023/06/07 02:26:42;;;;;;;;;;;13.10;99.90;;;;;;5109555;28;19931;-72
2023/06/07 02:29:08;;;;;;;;;;;13.10;99.90;;;;;;5109474;28;19924;-72
2023/06/07 02:31:34;;;;;;;;;;;13.00;99.90;;;;;;5110914;28;19982;-72
2023/06/07 02:33:59;;;;;;;;;;;13.10;99.90;;;;;;5109378;28;19927;-71
2023/06/07 02:36:25;;;;;;;;;;;13.00;99.90;;;;;;5102047;28;20006;-72
2023/06/07 02:38:51;;;;;;;;;;;13.10;99.90;;;;;;5101812;28;19928;-72
2023/06/07 02:41:17;;;;;;;;;;;13.10;99.90;;;;;;5109118;28;20227;-72
2023/06/07 02:43:43;;;;;;;;;;;13.10;99.90;;;;;;5091481;28;19981;-72
2023/06/07 02:46:09;;;;;;;;;;;13.20;99.90;;;;;;5107688;28;20014;-72
2023/06/07 02:48:35;;;;;;;;;;;13.10;99.90;;;;;;5097034;28;20011;-72
2023/06/07 02:51:01;;;;;;;;;;;13.10;99.90;;;;;;5107743;28;20431;-72
2023/06/07 02:53:27;;;;;;;;;;;13.10;99.90;;;;;;5105991;28;19923;-72
2023/06/07 02:55:52;;;;;;;;;;;13.10;99.90;;;;;;5096660;28;19930;-72
2023/06/07 02:58:18;;;;;;;;;;;13.10;99.90;;;;;;5107040;28;20298;-72
2023/06/07 03:00:49;;;;;;;;;;;13.10;99.90;;;;;;5095036;28;19924;-72
2023/06/07 03:03:16;;;;;;;;;;;13.10;99.90;;;;;;5105359;28;19923;-71
2023/06/07 03:05:45;;;;;;;;;;;13.20;99.90;;;;;;5104332;28;20405;-72
2023/06/07 03:08:11;;;;;;;;;;;13.10;99.90;;;;;;5094939;28;19934;-72
2023/06/07 03:10:36;;;;;;;;;;;13.20;99.90;;;;;;5091877;28;19924;-72
2023/06/07 03:13:02;;;;;;;;;;;13.20;99.90;;;;;;5107379;28;19924;-72
2023/06/07 03:15:28;;;;;;;;;;;13.20;99.90;;;;;;5109526;27;20012;-71
2023/06/07 03:17:54;;;;;;;;;;;13.20;99.90;;;;;;5106995;28;19981;-72
2023/06/07 03:20:21;;;;;;;;;;;13.30;99.90;;;;;;5108969;28;19924;-72
2023/06/07 03:22:47;;;;;;;;;;;13.20;99.90;;;;;;5076180;28;19924;-72
2023/06/07 03:25:13;;;;;;;;;;;13.20;99.90;;;;;;5099121;28;19928;-71
2023/06/07 03:27:38;;;;;;;;;;;13.20;99.90;;;;;;5089804;28;19931;-72
2023/06/07 03:30:05;;;;;;;;;;;13.20;99.90;;;;;;5089649;28;19932;-72
2023/06/07 03:32:30;;;;;;;;;;;13.20;99.90;;;;;;5103712;28;19943;-72
2023/06/07 03:34:56;;;;;;;;;;;13.30;99.90;;;;;;5109437;28;20289;-72
2023/06/07 03:37:21;;;;;;;;;;;13.20;99.90;;;;;;5095554;28;20390;-72
2023/06/07 03:39:47;;;;;;;;;;;13.30;99.90;;;;;;5108491;28;19923;-71
2023/06/07 03:42:12;;;;;;;;;;;13.30;99.90;;;;;;5092889;28;19924;-72
2023/06/07 03:44:38;;;;;;;;;;;13.30;99.90;;;;;;5095747;28;19927;-73
2023/06/07 03:47:03;;;;;;;;;;;13.30;99.90;;;;;;5087703;28;20014;-72
2023/06/07 03:49:29;;;;;;;;;;;13.30;99.90;;;;;;5106998;28;19927;-71
2023/06/07 03:51:55;;;;;;;;;;;13.30;99.90;;;;;;5087399;28;19946;-71
2023/06/07 03:54:20;;;;;;;;;;;13.30;99.90;;;;;;5105799;28;19931;-72
2023/06/07 03:56:46;;;;;;;;;;;13.30;99.90;;;;;;5103743;28;20461;-72
2023/06/07 03:59:12;;;;;;;;;;;13.30;99.90;;;;;;5105639;28;19930;-72
2023/06/07 04:01:38;;;;;;;;;;;13.30;99.90;;;;;;5092976;28;20389;-71
2023/06/07 04:04:05;;;;;;;;;;;13.30;99.90;;;;;;5106966;28;20012;-72
2023/06/07 04:06:30;;;;;;;;;;;13.40;99.90;;;;;;5103022;28;20377;-72
2023/06/07 04:08:57;;;;;;;;;;;13.30;99.90;;;;;;5095926;28;19931;-71
2023/06/07 04:11:22;;;;;;;;;;;13.30;99.90;;;;;;5107472;28;20018;-72
2023/06/07 04:13:48;;;;;;;;;;;13.30;99.90;;;;;;5108499;28;20042;-72
2023/06/07 04:16:13;;;;;;;;;;;13.30;99.90;;;;;;5105781;28;20010;-72
2023/06/07 04:18:39;;;;;;;;;;;13.30;99.90;;;;;;5096289;28;19928;-71
2023/06/07 04:21:05;;;;;;;;;;;13.40;99.90;;;;;;5106434;28;20385;-71
2023/06/07 04:23:31;;;;;;;;;;;13.30;99.90;;;;;;5107721;28;19927;-71
2023/06/07 04:25:58;;;;;;;;;;;13.40;99.90;;;;;;5105945;28;19924;-71
2023/06/07 04:28:24;;;;;;;;;;;13.40;99.90;;;;;;5107361;28;19928;-71
2023/06/07 04:30:51;;;;;;;;;;;13.40;99.90;;;;;;5107567;28;19923;-71
2023/06/07 04:33:19;;;;;;;;;;;13.40;99.90;;;;;;5094093;28;19935;-71
2023/06/07 04:35:44;;;;;;;;;;;13.40;99.90;;;;;;5074870;28;19935;-72
2023/06/07 04:38:20;;;;;;;;;;;13.40;99.90;;;;;;5106369;28;19924;-72
2023/06/07 04:40:49;;;;;;;;;;;13.40;99.90;;;;;;5102682;28;20035;-72
2023/06/07 04:43:18;;;;;;;;;;;13.40;99.90;;;;;;5095154;28;19993;-72
2023/06/07 04:45:46;;;;;;;;;;;13.50;99.90;;;;;;5083888;28;19980;-72
2023/06/07 04:48:12;;;;;;;;;;;13.50;99.90;;;;;;5096877;28;19931;-72
2023/06/07 04:50:41;;;;;;;;;;;13.60;99.90;;;;;;5104385;28;19955;-72
2023/06/07 04:53:08;;;;;;;;;;;13.70;99.90;;;;;;5104754;28;19928;-72
2023/06/07 04:55:34;;;;;;;;;;;13.80;99.90;;;;;;5102894;28;19932;-72
2023/06/07 04:58:06;;;;;;;;;;;13.80;99.90;;;;;;5105697;28;19924;-72
2023/06/07 05:00:32;;;;;;;;;;;13.80;99.90;;;;;;5101918;28;20018;-72
2023/06/07 05:03:06;;;;;;;;;;;13.80;99.90;;;;;;5109303;28;19931;-72
2023/06/07 05:05:35;;;;;;;;;;;13.80;99.90;;;;;;5105537;28;19928;-72
2023/06/07 05:08:01;;;;;;;;;;;13.80;99.90;;;;;;5098577;28;20007;-72
2023/06/07 05:10:26;;;;;;;;;;;13.80;99.90;;;;;;5067629;28;19928;-72
2023/06/07 05:12:52;;;;;;;;;;;13.80;99.90;;;;;;5093497;28;19924;-72
2023/06/07 05:15:17;;;;;;;;;;;13.80;99.90;;;;;;5110284;28;20014;-72
2023/06/07 05:17:45;;;;;;;;;;;13.80;99.90;;;;;;5098383;28;19931;-69
2023/06/07 05:20:11;;;;;;;;;;;13.90;99.90;;;;;;5077121;28;19930;-69
2023/06/07 05:22:40;;;;;;;;;;;13.90;99.90;;;;;;5103196;28;20294;-71
2023/06/07 05:25:08;;;;;;;;;;;14.00;99.90;;;;;;5093600;28;19935;-74
2023/06/07 05:27:43;;;;;;;;;;;14.00;99.90;;;;;;5089373;28;19924;-72
2023/06/07 05:30:09;;;;;;;;;;;14.10;99.90;;;;;;5099474;28;19931;-72
2023/06/07 05:32:35;;;;;;;;;;;14.20;99.90;;;;;;5108122;28;20298;-72
2023/06/07 05:35:01;;;;;;;;;;;14.20;99.90;;;;;;5102237;28;20724;-73
2023/06/07 05:37:28;;;;;;;;;;;14.30;99.90;;;;;;5104122;28;19932;-73
2023/06/07 05:39:53;;;;;;;;;;;14.30;99.90;;;;;;5110334;28;19973;-72
2023/06/07 05:42:19;;;;;;;;;;;14.30;99.90;;;;;;5105544;28;20296;-72
2023/06/07 05:44:48;;;;;;;;;;;14.40;99.90;;;;;;5091295;28;19923;-73
2023/06/07 05:47:14;;;;;;;;;;;14.40;99.90;;;;;;5106571;28;19939;-73
2023/06/07 05:49:40;;;;;;;;;;;14.50;99.90;;;;;;5100035;28;20592;-73
2023/06/07 05:52:06;;;;;;;;;;;14.50;99.90;;;;;;5102616;28;19955;-73
2023/06/07 05:54:32;;;;;;;;;;;14.40;99.90;;;;;;5100487;28;19962;-72
2023/06/07 05:56:57;;;;;;;;;;;14.40;99.90;;;;;;5101481;28;19924;-73
2023/06/07 05:59:23;;;;;;;;;;;14.40;99.90;;;;;;5107280;28;19936;-72
2023/06/07 06:01:48;;;;;;;;;;;14.40;99.90;;;;;;5102627;28;19924;-72
2023/06/07 06:04:16;;;;;;;;;;;14.40;99.90;;;;;;5089012;28;19928;-72
2023/06/07 06:06:41;;;;;;;;;;;14.40;99.90;;;;;;5101095;28;19924;-73
2023/06/07 06:09:07;;;;;;;;;;;14.50;99.90;;;;;;5099050;28;20396;-73
2023/06/07 06:11:32;;;;;;;;;;;14.60;99.90;;;;;;5109046;28;19924;-72
2023/06/07 06:13:58;;;;;;;;;;;14.70;99.90;;;;;;5109786;28;19928;-73
2023/06/07 06:16:23;;;;;;;;;;;14.70;99.90;;;;;;5107192;28;20292;-73
2023/06/07 06:18:49;;;;;;;;;;;14.70;99.90;;;;;;5099821;28;19976;-73
2023/06/07 06:21:14;;;;;;;;;;;14.70;99.90;;;;;;5094344;28;20063;-73
2023/06/07 06:23:40;;;;;;;;;;;14.70;99.90;;;;;;5107786;28;19931;-73
2023/06/07 06:26:06;;;;;;;;;;;14.70;99.90;;;;;;5094377;28;19928;-73
2023/06/07 06:28:31;;;;;;;;;;;14.80;99.90;;;;;;5107960;28;19928;-73
2023/06/07 06:30:57;;;;;;;;;;;14.80;99.90;;;;;;5106676;28;20069;-73
2023/06/07 06:33:22;;;;;;;;;;;14.90;99.90;;;;;;5107640;28;19976;-73
2023/06/07 06:35:48;;;;;;;;;;;14.90;99.90;;;;;;5105910;28;20301;-73
2023/06/07 06:38:13;;;;;;;;;;;14.90;99.90;;;;;;5106719;28;19963;-73
2023/06/07 06:40:39;;;;;;;;;;;15.10;99.90;;;;;;5105556;28;19932;-73
2023/06/07 06:43:05;;;;;;;;;;;15.20;99.90;;;;;;5108161;28;19923;-73
2023/06/07 06:45:30;;;;;;;;;;;15.30;99.90;;;;;;5105151;28;19931;-73
2023/06/07 06:47:58;;;;;;;;;;;15.40;99.90;;;;;;5108406;28;20006;-73
2023/06/07 06:50:24;;;;;;;;;;;15.40;99.90;;;;;;5106035;28;19928;-73
2023/06/07 06:52:49;;;;;;;;;;;15.50;99.90;;;;;;5108885;28;19923;-73
2023/06/07 06:55:15;;;;;;;;;;;15.50;99.90;;;;;;5107162;28;20020;-73
2023/06/07 06:57:41;;;;;;;;;;;15.60;99.90;;;;;;5106797;28;19924;-73
2023/06/07 07:00:08;;;;;;;;;;;15.60;99.90;;;;;;5106654;28;19932;-73
2023/06/07 07:02:34;;;;;;;;;;;15.70;99.90;;;;;;5107254;28;19930;-73
2023/06/07 07:05:00;;;;;;;;;;;15.80;99.90;;;;;;5106494;28;20318;-73
2023/06/07 07:07:27;;;;;;;;;;;16.00;99.90;;;;;;5099154;28;19982;-73
2023/06/07 07:09:53;;;;;;;;;;;16.10;99.90;;;;;;5104603;28;19959;-73
2023/06/07 07:12:21;;;;;;;;;;;16.10;99.90;;;;;;5109602;27;19923;-73
2023/06/07 07:14:46;;;;;;;;;;;16.10;99.90;;;;;;5095204;28;20019;-73
2023/06/07 07:17:12;;;;;;;;;;;16.20;99.90;;;;;;5110130;28;20014;-73
2023/06/07 07:19:38;;;;;;;;;;;16.10;99.90;;;;;;5094440;28;19932;-73
2023/06/07 07:22:03;;;;;;;;;;;16.10;99.90;;;;;;5108900;28;19980;-73
2023/06/07 07:24:29;;;;;;;;;;;16.20;99.90;;;;;;5107656;28;20015;-73
2023/06/07 07:26:55;;;;;;;;;;;16.20;99.90;;;;;;5108794;28;20441;-73
2023/06/07 07:29:20;;;;;;;;;;;16.30;99.90;;;;;;5106847;28;19955;-73
2023/06/07 07:31:46;;;;;;;;;;;16.40;99.90;;;;;;5110330;28;20003;-73
2023/06/07 07:34:12;;;;;;;;;;;16.40;99.90;;;;;;5107741;28;20386;-73
2023/06/07 07:36:38;;;;;;;;;;;16.30;99.90;;;;;;5099635;28;19924;-73
2023/06/07 07:39:06;;;;;;;;;;;16.20;99.90;;;;;;5103392;28;19928;-73
2023/06/07 07:41:32;;;;;;;;;;;16.10;99.90;;;;;;5100161;28;19928;-73
2023/06/07 07:43:58;;;;;;;;;;;16.00;99.90;;;;;;5092300;28;19977;-73
2023/06/07 07:46:23;;;;;;;;;;;16.10;99.90;;;;;;5090861;28;20393;-73
2023/06/07 07:48:49;;;;;;;;;;;16.10;99.90;;;;;;5107302;28;20006;-73
2023/06/07 07:51:15;;;;;;;;;;;16.30;99.90;;;;;;5108710;28;19924;-73
2023/06/07 07:53:42;;;;;;;;;;;16.30;99.90;;;;;;5107134;28;19928;-73
2023/06/07 07:56:07;;;;;;;;;;;16.40;99.90;;;;;;5107381;28;19924;-73
2023/06/07 07:58:33;;;;;;;;;;;16.50;99.90;;;;;;5104790;28;19924;-73
2023/06/07 08:00:58;;;;;;;;;;;16.60;99.90;;;;;;5107221;28;19924;-73
2023/06/07 08:03:24;;;;;;;;;;;16.60;99.90;;;;;;5103483;28;19931;-73
2023/06/07 08:05:50;;;;;;;;;;;16.70;99.90;;;;;;5106548;28;20312;-73
2023/06/07 08:08:16;;;;;;;;;;;16.70;99.90;;;;;;5094322;28;19924;-73
2023/06/07 08:10:42;;;;;;;;;;;16.70;99.90;;;;;;5108078;28;19924;-73
2023/06/07 08:13:08;;;;;;;;;;;16.60;99.90;;;;;;5095082;28;19934;-73
2023/06/07 08:15:33;;;;;;;;;;;16.70;99.90;;;;;;5109341;28;19928;-73
2023/06/07 08:17:59;;;;;;;;;;;16.70;99.90;;;;;;5105007;28;19980;-73
2023/06/07 08:20:24;;;;;;;;;;;16.80;99.90;;;;;;5107154;28;19934;-73
2023/06/07 08:22:50;;;;;;;;;;;16.70;99.90;;;;;;5105273;28;20014;-73
2023/06/07 08:25:16;;;;;;;;;;;16.80;99.90;;;;;;5100777;28;20421;-73
2023/06/07 08:27:42;;;;;;;;;;;16.90;99.90;;;;;;5101689;28;20309;-73
2023/06/07 08:30:08;;;;;;;;;;;17.00;99.90;;;;;;5108593;28;19924;-73
2023/06/07 08:32:33;;;;;;;;;;;17.00;99.90;;;;;;5104728;28;20317;-73
2023/06/07 08:34:59;;;;;;;;;;;17.00;99.90;;;;;;5100666;28;19931;-73
2023/06/07 08:37:25;;;;;;;;;;;17.00;99.90;;;;;;5101986;28;20525;-73
2023/06/07 08:39:50;;;;;;;;;;;17.10;99.90;;;;;;5111711;28;19924;-73
2023/06/07 08:42:16;;;;;;;;;;;17.20;99.90;;;;;;5091848;28;20293;-73
2023/06/07 08:44:41;;;;;;;;;;;17.10;99.90;;;;;;5109945;28;19924;-73
2023/06/07 08:47:08;;;;;;;;;;;17.00;99.90;;;;;;5079140;28;19924;-73
2023/06/07 08:49:33;;;;;;;;;;;17.00;99.90;;;;;;5100033;28;19996;-73
2023/06/07 08:52:00;;;;;;;;;;;17.10;99.90;;;;;;5097012;28;20386;-73
2023/06/07 08:54:26;;;;;;;;;;;17.30;99.90;;;;;;5110215;28;19984;-73
2023/06/07 08:56:53;;;;;;;;;;;17.30;99.90;;;;;;5107041;28;20393;-73
2023/06/07 08:59:19;;;;;;;;;;;17.30;99.90;;;;;;5108785;28;20378;-73
2023/06/07 09:01:45;;;;;;;;;;;17.30;99.90;;;;;;5106458;28;20027;-73
2023/06/07 09:04:11;;;;;;;;;;;17.30;99.90;;;;;;5112240;28;20466;-73
2023/06/07 09:06:36;;;;;;;;;;;17.40;99.90;;;;;;5106470;28;19963;-73
2023/06/07 09:09:05;;;;;;;;;;;17.30;99.90;;;;;;5100291;28;19931;-73
2023/06/07 09:11:32;;;;;;;;;;;17.30;99.90;;;;;;5111417;28;19928;-73
2023/06/07 09:13:57;;;;;;;;;;;17.30;99.90;;;;;;5111494;28;19930;-73
2023/06/07 09:16:23;;;;;;;;;;;17.40;99.90;;;;;;5108797;28;20015;-73
2023/06/07 09:18:55;;;;;;;;;;;17.50;99.90;;;;;;5109801;28;20445;-73
2023/06/07 09:21:24;;;;;;;;;;;17.70;99.90;;;;;;5089921;28;19980;-73
2023/06/07 09:23:50;;;;;;;;;;;17.70;99.90;;;;;;5110484;28;19924;-73
2023/06/07 09:26:17;;;;;;;;;;;17.70;99.90;;;;;;5106663;28;19924;-73
2023/06/07 09:28:45;;;;;;;;;;;17.70;99.90;;;;;;5108244;28;19931;-73
2023/06/07 09:31:11;;;;;;;;;;;17.90;99.90;;;;;;5095120;28;19970;-73
2023/06/07 09:33:37;;;;;;;;;;;18.00;99.90;;;;;;5110351;28;19931;-73
2023/06/07 09:36:03;;;;;;;;;;;18.20;99.90;;;;;;5104655;28;20278;-73
2023/06/07 09:38:28;;;;;;;;;;;18.40;99.90;;;;;;5107060;28;19923;-73
2023/06/07 09:40:55;;;;;;;;;;;18.60;99.90;;;;;;5103220;28;19931;-73
2023/06/07 09:43:21;;;;;;;;;;;18.70;99.90;;;;;;5101041;28;20382;-74
2023/06/07 09:45:53;;;;;;;;;;;19.00;99.90;;;;;;5092110;28;19931;-74
2023/06/07 09:48:19;;;;;;;;;;;19.30;99.90;;;;;;5097298;28;19928;-74
2023/06/07 09:50:54;;;;;;;;;;;19.50;99.90;;;;;;5103450;28;19930;-74
2023/06/07 09:53:20;;;;;;;;;;;19.60;99.90;;;;;;5108092;28;19967;-74
2023/06/07 09:55:45;;;;;;;;;;;19.80;99.90;;;;;;5102981;28;20450;-74
2023/06/07 09:58:19;;;;;;;;;;;19.90;99.90;;;;;;5106965;28;19923;-74
2023/06/07 10:00:45;;;;;;;6.65;2.30;;;20.00;99.90;;;;;;5097540;28;19924;-74
2023/06/07 10:03:12;;;;;;;6.53;2.25;;;20.10;99.90;;;;;;5102181;28;20454;-73
2023/06/07 10:05:38;;;;;;;8.33;2.57;;;20.20;99.90;;;;;;5100275;28;20904;-74
2023/06/07 10:08:05;;;;;;;;;;;20.30;99.90;;;;;;5096236;28;20278;-73
2023/06/07 10:10:32;;;;;;;;;;;20.30;99.90;;;;;;5102761;28;20266;-74
2023/06/07 10:12:58;;;;;;;;;;;20.40;99.90;;;;;;5090703;28;20341;-74
2023/06/07 10:15:24;;;;;;;;;;;20.50;99.90;;;;;;5109541;28;19999;-73
2023/06/07 10:17:54;;;;;;;;;;;20.70;99.90;;;;;;5106882;28;19963;-74
2023/06/07 10:20:43;;;;;;;;;;;20.80;99.90;;;;;;5109200;28;19920;-74
2023/06/07 10:23:13;;;;;;;9.68;2.63;;;20.90;99.90;;;;;;5088307;28;19973;-74
2023/06/07 10:25:52;;;;;;;9.95;2.58;;;21.10;99.90;;;;;;5089644;28;20394;-73
2023/06/07 10:29:08;;;;;;;7.97;2.17;;;21.30;99.90;;;;;;5107770;28;20398;-74
2023/06/07 10:31:40;;;;;;;6.33;2.00;;;21.40;99.90;;;;;;5025101;28;20869;-73
2023/06/07 10:34:08;;;;;;;10.38;2.75;;;21.60;99.90;;;;;;5023130;28;20492;-74
2023/06/07 10:36:41;;;;;;;9.75;2.47;;;21.60;99.90;;;;;;5056505;28;20428;-74
2023/06/07 10:39:11;;;;;;;12.45;2.50;;;21.50;99.90;;;;;;5087657;28;20496;-74
2023/06/07 10:41:36;;;;;;;8.60;2.35;;;21.60;99.90;;;;;;5106852;28;20450;-74
2023/06/07 10:44:03;;;;;;;7.63;2.23;;;21.70;99.90;;;;;;5102539;28;20406;-74
2023/06/07 10:46:29;;;;;;;9.27;2.70;;;21.80;99.90;;;;;;5097214;28;20412;-74
2023/06/07 10:48:59;;;;;;;8.52;2.42;;;21.80;99.90;;;;;;5085559;28;20748;-74
2023/06/07 10:51:44;;;;;;;9.07;2.20;;;22.00;99.90;;;;;;5105576;28;21317;-74
2023/06/07 10:54:10;;;;;;;8.98;2.40;;;22.10;99.30;;;;;;5103029;28;20505;-74
2023/06/07 10:56:37;;;;;;;9.20;2.28;;;22.10;99.00;;;;;;5107292;28;20521;-72
2023/06/07 10:59:15;;;;;;;7.22;2.38;;;22.10;99.10;;;;;;5104941;28;20415;-74
2023/06/07 11:01:54;;;;;;;10.30;2.90;;;22.10;98.40;;;;;;5103340;28;20514;-74
2023/06/07 11:04:36;;;;;;;8.50;2.70;;;22.00;99.00;;;;;;5085157;28;20461;-74
2023/06/07 11:07:17;;;;;;;8.50;2.40;;;22.20;99.30;;;;;;5100214;28;20398;-74
2023/06/07 11:09:43;;;;;;;9.45;2.70;;;22.30;99.20;;;;;;5101324;28;20440;-74
2023/06/07 11:12:35;;;;;;;8.13;2.67;;;22.40;98.50;;;;;;5083778;28;20400;-74
2023/06/07 11:15:30;;;;;;;8.07;2.55;;;22.40;98.30;;;;;;5101213;28;20429;-74
2023/06/07 11:18:03;;;;;;;9.32;2.40;;;22.40;97.90;;;;;;5089464;28;20437;-74
2023/06/07 11:20:43;;;;;;;10.05;3.20;;;22.40;96.90;;;;;;5106274;28;20435;-72
2023/06/07 11:23:25;;;;;;;10.80;2.80;;;22.50;97.60;;;;;;5104796;28;20977;-72
2023/06/07 11:25:52;;;;;;;7.68;2.35;;;22.50;97.10;;;;;;5088619;28;20809;-74
2023/06/07 11:28:22;;;;;;;9.32;2.47;;;22.40;97.50;;;;;;5104585;28;20408;-74
2023/06/07 11:30:50;;;;;;;7.18;2.35;;;22.50;97.00;;;;;;5105507;28;20401;-74
2023/06/07 11:33:16;;;;;;;8.35;2.50;;;22.60;97.20;;;;;;5107329;28;20905;-74
2023/06/07 11:35:42;;;;;;;8.95;2.45;;;22.70;96.60;;;;;;5105159;27;20429;-74
2023/06/07 11:38:10;;;;;;;8.73;2.38;;;22.70;96.20;;;;;;5095096;28;20443;-74
2023/06/07 11:40:36;;;;;;;;;;;22.80;96.70;;;;;;5105442;28;20102;-74
2023/06/07 11:43:02;;;;;;;;;;;22.90;95.70;;;;;;5108697;28;19920;-74
2023/06/07 11:45:27;;;;;;;;;;;22.90;94.00;;;;;;5104728;28;19920;-72
2023/06/07 11:47:57;;;;;;;;;;;22.90;94.90;;;;;;5108519;28;19977;-74
2023/06/07 11:50:23;;;;;;;;;;;23.00;95.40;;;;;;5104725;28;20006;-74
2023/06/07 11:52:48;;;;;;;;;;;23.00;95.50;;;;;;5108233;28;20352;-74
2023/06/07 11:55:16;;;;;;;;;;;23.10;95.30;;;;;;5104205;28;19924;-74
2023/06/07 11:57:43;;;;;;;;;;;23.20;94.70;;;;;;5100476;28;19926;-74
2023/06/07 12:00:15;;;;;;;;;;;23.20;94.90;;;;;;5100194;28;20317;-74
2023/06/07 12:02:41;;;;;;;;;;;23.30;94.30;;;;;;5106153;28;20361;-74
2023/06/07 12:05:10;;;;;;;;;;;23.30;94.40;;;;;;5092405;28;20008;-73
2023/06/07 12:07:36;;;;;;;;;;;23.30;94.80;;;;;;5098348;28;19920;-74
2023/06/07 12:10:02;;;;;;;;;;;23.50;94.30;;;;;;5102929;28;20315;-74
2023/06/07 12:12:28;;;;;;;9.85;2.63;;;23.60;94.30;;;;;;5098668;28;19922;-74
2023/06/07 12:15:01;;;;;;;9.25;2.60;;;23.60;94.40;;;;;;5105057;28;20449;-74
2023/06/07 12:17:35;;;;;;;11.88;2.70;;;23.70;94.60;;;;;;5107028;28;20419;-74
2023/06/07 12:20:14;;;;;;;8.52;2.40;;;23.80;93.50;;;;;;5105794;28;20430;-74
2023/06/07 12:22:40;;;;;;;8.73;2.55;;;23.80;93.50;;;;;;5105776;28;20412;-74
2023/06/07 12:25:11;;;;;;;7.55;2.60;;;23.80;93.10;;;;;;5104488;28;20410;-74
2023/06/07 12:27:37;;;;;;;7.40;2.22;;;23.90;93.60;;;;;;5102629;28;20476;-74
2023/06/07 12:30:06;;;;;;;6.55;2.45;;;24.00;92.90;;;;;;5092838;28;20396;-74
2023/06/07 12:32:32;;;;;;;8.80;2.50;;;24.00;93.20;;;;;;5104707;28;20413;-74
2023/06/07 12:35:02;;;;;;;9.82;2.60;;;24.10;92.20;;;;;;5104831;28;20408;-74
2023/06/07 12:37:28;;;;;;;8.48;2.47;;;24.10;92.40;;;;;;5104120;28;20425;-74
2023/06/07 12:39:54;;;;;;;9.13;2.50;;;24.00;92.20;;;;;;5104629;28;20408;-74
2023/06/07 12:42:20;;;;;;;9.68;2.80;;;23.90;92.20;;;;;;5101086;28;20475;-74
2023/06/07 12:44:47;;;;;;;14.03;2.73;;;23.80;91.90;;;;;;5095497;28;20396;-74
2023/06/07 12:47:12;;;;;;;8.57;2.90;;;23.90;92.50;;;;;;5090147;28;20420;-74
2023/06/07 12:49:38;;;;;;;8.02;2.40;;;24.20;91.50;;;;;;5105682;28;20408;-74
2023/06/07 12:52:04;;;;;;;9.57;2.60;;;24.20;91.20;;;;;;5091901;28;20390;-74
2023/06/07 12:54:30;;;;;;;10.00;2.58;;;24.10;91.60;;;;;;5105590;28;20410;-73
2023/06/07 12:56:55;;;;;;;9.80;2.60;;;24.10;91.90;;;;;;5103238;28;20521;-74
2023/06/07 12:59:21;;;;;;;10.27;2.57;;;24.20;91.90;;;;;;5104387;28;20487;-74
2023/06/07 13:01:47;;;;;;;9.07;2.67;;;24.40;91.60;;;;;;5100439;28;20409;-74
2023/06/07 13:04:13;;;;;;;7.68;2.50;;;24.40;90.90;;;;;;5103930;28;20432;-74
2023/06/07 13:06:39;;;;;;;7.77;3.00;;;24.30;90.50;;;;;;5089664;28;20421;-74
2023/06/07 13:09:07;;;;;;;8.52;2.35;;;24.10;89.90;;;;;;5096185;28;20886;-74
2023/06/07 13:11:33;;;;;;;8.50;2.90;;;24.10;90.80;;;;;;5105546;28;20947;-73
2023/06/07 13:13:59;;;;;;;10.10;3.00;;;24.00;90.20;;;;;;5107031;28;20478;-74
2023/06/07 13:16:25;;;;;;;11.70;2.87;;;24.10;90.00;;;;;;5104360;28;20598;-74
2023/06/07 13:18:51;;;;;;;9.87;2.97;;;24.10;90.50;;;;;;5106302;28;20397;-74
2023/06/07 13:21:17;;;;;;;10.13;2.70;;;24.10;90.10;;;;;;5103052;28;20755;-73
2023/06/07 13:23:44;;;;;;;12.77;2.83;;;24.20;90.00;;;;;;5072481;28;20421;-74
2023/06/07 13:26:10;;;;;;;7.93;2.55;;;24.40;90.30;;;;;;5103260;28;20478;-74
2023/06/07 13:28:35;;;;;;;7.40;2.30;;;24.50;90.00;;;;;;5098875;28;20889;-74
2023/06/07 13:31:01;;;;;;;8.48;2.50;;;24.60;89.30;;;;;;5107186;28;20406;-74
2023/06/07 13:33:27;;;;;;;8.90;2.58;;;24.70;89.00;;;;;;5109522;28;20404;-74
2023/06/07 13:35:52;;;;;;;9.37;2.50;;;24.90;88.80;;;;;;5094711;28;20414;-74
2023/06/07 13:38:18;;;;;;;7.40;2.30;;;25.10;87.50;;;;;;5100628;28;20405;-74
2023/06/07 13:40:44;;;;;;;12.27;2.83;;;25.10;85.80;;;;;;5104178;28;20851;-74
2023/06/07 13:43:09;;;;;;;9.97;3.17;;;24.90;86.00;;;;;;5107290;28;20400;-73
2023/06/07 13:45:35;;;;;;;8.57;2.10;;;24.70;86.00;;;;;;5093412;28;20408;-74
2023/06/07 13:48:01;;;;;;;10.20;2.78;;;24.80;87.10;;;;;;5107362;28;20408;-74
2023/06/07 13:50:28;;;;;;;8.43;2.60;;;24.90;86.90;;;;;;5105321;28;20394;-74
2023/06/07 13:52:54;;;;;;;8.57;2.42;;;25.10;87.00;;;;;;5100706;28;20406;-74
2023/06/07 13:55:21;;;;;;;10.50;2.97;;;25.10;85.50;;;;;;5101569;28;20465;-73